sensor_id;sensor_type;location;lat;lon;timestamp;temperature;humidity
12819;DHT22;6474;53.474;9.894;2023-07-13T00:00:04;17.80;67.80
12819;DHT22;6474;53.474;9.894;2023-07-13T00:02:35;17.70;67.90
12819;DHT22;6474;53.474;9.894;2023-07-13T00:05:04;17.70;68.10
12819;DHT22;6474;53.474;9.894;2023-07-13T00:07:33;17.60;68.10
12819;DHT22;6474;53.474;9.894;2023-07-13T00:10:01;17.60;68.20
12819;DHT22;6474;53.474;9.894;2023-07-13T00:12:33;17.50;68.10
12819;DHT22;6474;53.474;9.894;2023-07-13T00:15:03;17.50;68.10
12819;DHT22;6474;53.474;9.894;2023-07-13T00:17:32;17.40;68.00
12819;DHT22;6474;53.474;9.894;2023-07-13T00:20:00;17.30;68.00
12819;DHT22;6474;53.474;9.894;2023-07-13T00:22:28;17.30;68.10
12819;DHT22;6474;53.474;9.894;2023-07-13T00:24:56;17.20;68.10
12819;DHT22;6474;53.474;9.894;2023-07-13T00:27:25;17.20;68.20
12819;DHT22;6474;53.474;9.894;2023-07-13T00:29:55;17.10;68.10
12819;DHT22;6474;53.474;9.894;2023-07-13T00:32:23;17.00;68.10
12819;DHT22;6474;53.474;9.894;2023-07-13T00:34:51;17.00;68.20
12819;DHT22;6474;53.474;9.894;2023-07-13T00:37:19;17.00;68.20
12819;DHT22;6474;53.474;9.894;2023-07-13T00:39:47;16.90;68.20
12819;DHT22;6474;53.474;9.894;2023-07-13T00:42:15;16.90;68.40
12819;DHT22;6474;53.474;9.894;2023-07-13T00:45:07;16.90;68.20
12819;DHT22;6474;53.474;9.894;2023-07-13T00:47:35;16.90;68.30
12819;DHT22;6474;53.474;9.894;2023-07-13T00:50:04;16.80;68.20
12819;DHT22;6474;53.474;9.894;2023-07-13T00:52:36;16.80;68.40
12819;DHT22;6474;53.474;9.894;2023-07-13T00:55:05;16.80;68.50
12819;DHT22;6474;53.474;9.894;2023-07-13T00:57:34;16.80;68.50
12819;DHT22;6474;53.474;9.894;2023-07-13T01:00:04;16.70;68.30
12819;DHT22;6474;53.474;9.894;2023-07-13T01:02:35;16.70;68.40
12819;DHT22;6474;53.474;9.894;2023-07-13T01:05:09;16.70;68.40
12819;DHT22;6474;53.474;9.894;2023-07-13T01:07:37;16.70;68.50
12819;DHT22;6474;53.474;9.894;2023-07-13T01:10:06;16.70;68.40
12819;DHT22;6474;53.474;9.894;2023-07-13T01:12:34;16.70;68.40
12819;DHT22;6474;53.474;9.894;2023-07-13T01:15:04;16.70;68.40
12819;DHT22;6474;53.474;9.894;2023-07-13T01:17:36;16.70;68.40
12819;DHT22;6474;53.474;9.894;2023-07-13T01:20:05;16.60;68.30
12819;DHT22;6474;53.474;9.894;2023-07-13T01:22:36;16.60;68.30
12819;DHT22;6474;53.474;9.894;2023-07-13T01:25:05;16.60;68.30
12819;DHT22;6474;53.474;9.894;2023-07-13T01:27:35;16.60;68.30
12819;DHT22;6474;53.474;9.894;2023-07-13T01:30:04;16.60;68.30
12819;DHT22;6474;53.474;9.894;2023-07-13T01:32:31;16.60;68.30
12819;DHT22;6474;53.474;9.894;2023-07-13T01:35:00;16.60;68.30
12819;DHT22;6474;53.474;9.894;2023-07-13T01:37:28;16.60;68.40
12819;DHT22;6474;53.474;9.894;2023-07-13T01:40:01;16.50;68.20
12819;DHT22;6474;53.474;9.894;2023-07-13T01:42:30;16.50;68.20
12819;DHT22;6474;53.474;9.894;2023-07-13T01:44:58;16.50;68.30
12819;DHT22;6474;53.474;9.894;2023-07-13T01:47:26;16.50;68.20
12819;DHT22;6474;53.474;9.894;2023-07-13T01:49:54;16.50;68.20
12819;DHT22;6474;53.474;9.894;2023-07-13T01:52:22;16.50;68.20
12819;DHT22;6474;53.474;9.894;2023-07-13T01:54:50;16.50;68.20
12819;DHT22;6474;53.474;9.894;2023-07-13T01:57:20;16.50;68.20
12819;DHT22;6474;53.474;9.894;2023-07-13T01:59:48;16.50;68.20
12819;DHT22;6474;53.474;9.894;2023-07-13T02:02:16;16.40;68.10
12819;DHT22;6474;53.474;9.894;2023-07-13T02:04:43;16.50;68.20
12819;DHT22;6474;53.474;9.894;2023-07-13T02:07:11;16.40;68.10
12819;DHT22;6474;53.474;9.894;2023-07-13T02:09:40;16.40;68.10
12819;DHT22;6474;53.474;9.894;2023-07-13T02:12:09;16.40;68.10
12819;DHT22;6474;53.474;9.894;2023-07-13T02:14:38;16.40;68.10
12819;DHT22;6474;53.474;9.894;2023-07-13T02:17:06;16.40;68.20
12819;DHT22;6474;53.474;9.894;2023-07-13T02:19:34;16.40;68.30
12819;DHT22;6474;53.474;9.894;2023-07-13T02:22:03;16.40;68.30
12819;DHT22;6474;53.474;9.894;2023-07-13T02:24:31;16.30;68.30
12819;DHT22;6474;53.474;9.894;2023-07-13T02:26:59;16.30;68.40
12819;DHT22;6474;53.474;9.894;2023-07-13T02:29:28;16.30;68.40
12819;DHT22;6474;53.474;9.894;2023-07-13T02:31:59;16.30;68.40
12819;DHT22;6474;53.474;9.894;2023-07-13T02:34:27;16.30;68.50
12819;DHT22;6474;53.474;9.894;2023-07-13T02:36:58;16.30;68.50
12819;DHT22;6474;53.474;9.894;2023-07-13T02:39:26;16.30;68.50
12819;DHT22;6474;53.474;9.894;2023-07-13T02:41:54;16.30;68.50
12819;DHT22;6474;53.474;9.894;2023-07-13T02:44:22;16.30;68.60
12819;DHT22;6474;53.474;9.894;2023-07-13T02:46:50;16.20;68.50
12819;DHT22;6474;53.474;9.894;2023-07-13T02:49:19;16.30;68.60
12819;DHT22;6474;53.474;9.894;2023-07-13T02:51:48;16.20;68.50
12819;DHT22;6474;53.474;9.894;2023-07-13T02:54:16;16.20;68.60
12819;DHT22;6474;53.474;9.894;2023-07-13T02:56:47;16.20;68.60
12819;DHT22;6474;53.474;9.894;2023-07-13T02:59:18;16.20;68.60
12819;DHT22;6474;53.474;9.894;2023-07-13T03:01:46;16.20;68.70
12819;DHT22;6474;53.474;9.894;2023-07-13T03:04:14;16.20;68.60
12819;DHT22;6474;53.474;9.894;2023-07-13T03:06:47;16.20;68.70
12819;DHT22;6474;53.474;9.894;2023-07-13T03:09:15;16.10;68.60
12819;DHT22;6474;53.474;9.894;2023-07-13T03:11:43;16.10;68.60
12819;DHT22;6474;53.474;9.894;2023-07-13T03:14:11;16.10;68.60
12819;DHT22;6474;53.474;9.894;2023-07-13T03:16:39;16.10;68.70
12819;DHT22;6474;53.474;9.894;2023-07-13T03:19:07;16.10;68.70
12819;DHT22;6474;53.474;9.894;2023-07-13T03:21:35;16.10;68.70
12819;DHT22;6474;53.474;9.894;2023-07-13T03:24:05;16.10;68.70
12819;DHT22;6474;53.474;9.894;2023-07-13T03:26:33;16.00;68.60
12819;DHT22;6474;53.474;9.894;2023-07-13T03:29:01;16.10;68.70
12819;DHT22;6474;53.474;9.894;2023-07-13T03:31:32;16.10;68.70
12819;DHT22;6474;53.474;9.894;2023-07-13T03:34:00;16.10;68.80
12819;DHT22;6474;53.474;9.894;2023-07-13T03:36:30;16.10;68.70
12819;DHT22;6474;53.474;9.894;2023-07-13T03:39:00;16.00;68.60
12819;DHT22;6474;53.474;9.894;2023-07-13T03:41:32;16.10;68.70
12819;DHT22;6474;53.474;9.894;2023-07-13T03:44:00;16.10;68.70
12819;DHT22;6474;53.474;9.894;2023-07-13T03:46:28;16.10;68.60
12819;DHT22;6474;53.474;9.894;2023-07-13T03:48:58;16.10;68.60
12819;DHT22;6474;53.474;9.894;2023-07-13T03:51:26;16.10;68.60
12819;DHT22;6474;53.474;9.894;2023-07-13T03:53:54;16.10;68.60
12819;DHT22;6474;53.474;9.894;2023-07-13T03:56:23;16.10;68.50
12819;DHT22;6474;53.474;9.894;2023-07-13T03:58:52;16.10;68.50
12819;DHT22;6474;53.474;9.894;2023-07-13T04:01:21;16.20;68.50
12819;DHT22;6474;53.474;9.894;2023-07-13T04:03:49;16.20;68.50
12819;DHT22;6474;53.474;9.894;2023-07-13T04:06:19;16.20;68.40
12819;DHT22;6474;53.474;9.894;2023-07-13T04:08:49;16.20;68.40
12819;DHT22;6474;53.474;9.894;2023-07-13T04:11:20;16.20;68.40
12819;DHT22;6474;53.474;9.894;2023-07-13T04:13:48;16.20;68.40
12819;DHT22;6474;53.474;9.894;2023-07-13T04:16:19;16.30;68.50
12819;DHT22;6474;53.474;9.894;2023-07-13T04:18:47;16.30;68.50
12819;DHT22;6474;53.474;9.894;2023-07-13T04:21:16;16.30;68.40
12819;DHT22;6474;53.474;9.894;2023-07-13T04:23:46;16.30;68.40
12819;DHT22;6474;53.474;9.894;2023-07-13T04:26:15;16.40;68.50
12819;DHT22;6474;53.474;9.894;2023-07-13T04:28:48;16.40;69.30
12819;DHT22;6474;53.474;9.894;2023-07-13T04:31:25;16.40;68.50
12819;DHT22;6474;53.474;9.894;2023-07-13T04:33:59;16.40;68.50
12819;DHT22;6474;53.474;9.894;2023-07-13T04:36:33;16.50;68.40
12819;DHT22;6474;53.474;9.894;2023-07-13T04:39:04;16.50;68.40
12819;DHT22;6474;53.474;9.894;2023-07-13T04:41:32;16.60;68.30
12819;DHT22;6474;53.474;9.894;2023-07-13T04:44:00;16.70;68.50
12819;DHT22;6474;53.474;9.894;2023-07-13T04:46:31;16.70;68.40
12819;DHT22;6474;53.474;9.894;2023-07-13T04:49:01;16.90;68.60
12819;DHT22;6474;53.474;9.894;2023-07-13T04:51:32;16.90;68.60
12819;DHT22;6474;53.474;9.894;2023-07-13T04:54:00;17.00;68.60
12819;DHT22;6474;53.474;9.894;2023-07-13T04:56:28;17.00;68.50
12819;DHT22;6474;53.474;9.894;2023-07-13T04:58:56;17.10;68.50
12819;DHT22;6474;53.474;9.894;2023-07-13T05:01:25;17.10;68.50
12819;DHT22;6474;53.474;9.894;2023-07-13T05:03:54;17.20;68.50
12819;DHT22;6474;53.474;9.894;2023-07-13T05:06:25;17.20;68.50
12819;DHT22;6474;53.474;9.894;2023-07-13T05:08:53;17.30;68.50
12819;DHT22;6474;53.474;9.894;2023-07-13T05:11:21;17.50;68.60
12819;DHT22;6474;53.474;9.894;2023-07-13T05:13:49;17.60;68.60
12819;DHT22;6474;53.474;9.894;2023-07-13T05:16:16;17.70;68.60
12819;DHT22;6474;53.474;9.894;2023-07-13T05:18:44;17.80;68.50
12819;DHT22;6474;53.474;9.894;2023-07-13T05:21:14;17.90;68.50
12819;DHT22;6474;53.474;9.894;2023-07-13T05:23:42;18.00;68.50
12819;DHT22;6474;53.474;9.894;2023-07-13T05:26:10;18.00;68.30
12819;DHT22;6474;53.474;9.894;2023-07-13T05:28:39;18.00;68.30
12819;DHT22;6474;53.474;9.894;2023-07-13T05:31:07;18.00;68.30
12819;DHT22;6474;53.474;9.894;2023-07-13T05:33:36;18.00;68.40
12819;DHT22;6474;53.474;9.894;2023-07-13T05:36:07;18.00;68.40
12819;DHT22;6474;53.474;9.894;2023-07-13T05:38:36;17.90;68.40
12819;DHT22;6474;53.474;9.894;2023-07-13T05:41:04;17.90;68.50
12819;DHT22;6474;53.474;9.894;2023-07-13T05:43:32;17.90;68.60
12819;DHT22;6474;53.474;9.894;2023-07-13T05:46:00;17.90;68.70
12819;DHT22;6474;53.474;9.894;2023-07-13T05:48:27;17.90;68.80
12819;DHT22;6474;53.474;9.894;2023-07-13T05:50:55;17.90;68.90
12819;DHT22;6474;53.474;9.894;2023-07-13T05:53:23;18.00;69.00
12819;DHT22;6474;53.474;9.894;2023-07-13T05:55:54;18.00;68.90
12819;DHT22;6474;53.474;9.894;2023-07-13T05:58:25;18.10;69.00
12819;DHT22;6474;53.474;9.894;2023-07-13T06:00:59;18.10;68.90
12819;DHT22;6474;53.474;9.894;2023-07-13T06:03:27;18.10;68.90
12819;DHT22;6474;53.474;9.894;2023-07-13T06:05:55;18.20;68.90
12819;DHT22;6474;53.474;9.894;2023-07-13T06:08:23;18.20;68.80
12819;DHT22;6474;53.474;9.894;2023-07-13T06:10:52;18.20;68.70
12819;DHT22;6474;53.474;9.894;2023-07-13T06:13:20;18.20;68.70
12819;DHT22;6474;53.474;9.894;2023-07-13T06:15:49;18.20;68.70
12819;DHT22;6474;53.474;9.894;2023-07-13T06:18:16;18.30;68.90
12819;DHT22;6474;53.474;9.894;2023-07-13T06:20:44;18.30;68.80
12819;DHT22;6474;53.474;9.894;2023-07-13T06:23:12;18.40;68.90
12819;DHT22;6474;53.474;9.894;2023-07-13T06:25:40;18.40;68.80
12819;DHT22;6474;53.474;9.894;2023-07-13T06:28:09;18.40;68.70
12819;DHT22;6474;53.474;9.894;2023-07-13T06:30:38;18.50;68.80
12819;DHT22;6474;53.474;9.894;2023-07-13T06:33:06;18.50;68.80
12819;DHT22;6474;53.474;9.894;2023-07-13T06:35:34;18.50;68.80
12819;DHT22;6474;53.474;9.894;2023-07-13T06:38:02;18.50;68.80
12819;DHT22;6474;53.474;9.894;2023-07-13T06:40:33;18.50;68.80
12819;DHT22;6474;53.474;9.894;2023-07-13T06:43:01;18.50;68.90
12819;DHT22;6474;53.474;9.894;2023-07-13T06:45:32;18.60;69.00
12819;DHT22;6474;53.474;9.894;2023-07-13T06:48:00;18.60;69.00
12819;DHT22;6474;53.474;9.894;2023-07-13T06:50:28;18.70;69.00
12819;DHT22;6474;53.474;9.894;2023-07-13T06:52:57;18.70;68.90
12819;DHT22;6474;53.474;9.894;2023-07-13T06:55:26;18.80;69.10
12819;DHT22;6474;53.474;9.894;2023-07-13T06:57:55;18.80;69.10
12819;DHT22;6474;53.474;9.894;2023-07-13T07:00:23;18.90;69.10
12819;DHT22;6474;53.474;9.894;2023-07-13T07:02:52;19.00;69.10
12819;DHT22;6474;53.474;9.894;2023-07-13T07:05:21;19.10;69.20
12819;DHT22;6474;53.474;9.894;2023-07-13T07:07:50;19.10;69.10
12819;DHT22;6474;53.474;9.894;2023-07-13T07:10:19;19.20;69.00
12819;DHT22;6474;53.474;9.894;2023-07-13T07:12:48;19.30;69.10
12819;DHT22;6474;53.474;9.894;2023-07-13T07:15:16;19.30;68.80
12819;DHT22;6474;53.474;9.894;2023-07-13T07:17:44;19.40;68.80
12819;DHT22;6474;53.474;9.894;2023-07-13T07:20:17;19.40;68.80
12819;DHT22;6474;53.474;9.894;2023-07-13T07:22:45;19.50;68.70
12819;DHT22;6474;53.474;9.894;2023-07-13T07:25:13;19.50;68.70
12819;DHT22;6474;53.474;9.894;2023-07-13T07:27:40;19.60;68.80
12819;DHT22;6474;53.474;9.894;2023-07-13T07:30:14;19.60;68.80
12819;DHT22;6474;53.474;9.894;2023-07-13T07:32:45;19.70;68.90
12819;DHT22;6474;53.474;9.894;2023-07-13T07:35:17;19.80;68.90
12819;DHT22;6474;53.474;9.894;2023-07-13T07:37:45;19.80;68.80
12819;DHT22;6474;53.474;9.894;2023-07-13T07:40:17;19.80;68.80
12819;DHT22;6474;53.474;9.894;2023-07-13T07:42:49;19.80;69.00
12819;DHT22;6474;53.474;9.894;2023-07-13T07:45:17;19.90;69.10
12819;DHT22;6474;53.474;9.894;2023-07-13T07:47:45;19.90;69.00
12819;DHT22;6474;53.474;9.894;2023-07-13T07:50:13;20.00;69.20
12819;DHT22;6474;53.474;9.894;2023-07-13T07:52:44;20.00;69.10
12819;DHT22;6474;53.474;9.894;2023-07-13T07:55:12;20.10;69.20
12819;DHT22;6474;53.474;9.894;2023-07-13T07:58:01;20.20;69.10
12819;DHT22;6474;53.474;9.894;2023-07-13T08:00:32;20.30;69.10
12819;DHT22;6474;53.474;9.894;2023-07-13T08:03:22;20.40;69.10
12819;DHT22;6474;53.474;9.894;2023-07-13T08:05:53;20.60;69.00
12819;DHT22;6474;53.474;9.894;2023-07-13T08:08:26;20.70;69.20
12819;DHT22;6474;53.474;9.894;2023-07-13T08:10:57;20.90;69.10
12819;DHT22;6474;53.474;9.894;2023-07-13T08:13:45;20.90;69.00
12819;DHT22;6474;53.474;9.894;2023-07-13T08:16:12;21.00;69.10
12819;DHT22;6474;53.474;9.894;2023-07-13T08:18:40;21.00;69.00
12819;DHT22;6474;53.474;9.894;2023-07-13T08:21:09;21.10;69.00
12819;DHT22;6474;53.474;9.894;2023-07-13T08:23:41;21.10;68.90
12819;DHT22;6474;53.474;9.894;2023-07-13T08:26:09;21.20;69.00
12819;DHT22;6474;53.474;9.894;2023-07-13T08:28:37;21.20;69.00
12819;DHT22;6474;53.474;9.894;2023-07-13T08:31:07;21.30;69.00
12819;DHT22;6474;53.474;9.894;2023-07-13T08:33:36;21.30;69.00
12819;DHT22;6474;53.474;9.894;2023-07-13T08:36:05;21.40;69.10
12819;DHT22;6474;53.474;9.894;2023-07-13T08:38:33;21.40;69.00
12819;DHT22;6474;53.474;9.894;2023-07-13T08:41:10;21.50;69.00
12819;DHT22;6474;53.474;9.894;2023-07-13T08:43:39;21.50;69.10
12819;DHT22;6474;53.474;9.894;2023-07-13T08:46:13;21.50;69.00
12819;DHT22;6474;53.474;9.894;2023-07-13T08:48:46;21.50;69.10
12819;DHT22;6474;53.474;9.894;2023-07-13T08:51:30;21.50;69.20
12819;DHT22;6474;53.474;9.894;2023-07-13T08:54:04;21.60;69.20
12819;DHT22;6474;53.474;9.894;2023-07-13T08:56:35;21.60;69.00
12819;DHT22;6474;53.474;9.894;2023-07-13T08:59:12;21.60;68.90
12819;DHT22;6474;53.474;9.894;2023-07-13T09:01:57;21.50;68.70
12819;DHT22;6474;53.474;9.894;2023-07-13T09:04:30;21.40;68.80
12819;DHT22;6474;53.474;9.894;2023-07-13T09:07:05;21.20;68.80
12819;DHT22;6474;53.474;9.894;2023-07-13T09:09:47;21.10;69.00
12819;DHT22;6474;53.474;9.894;2023-07-13T09:12:22;21.20;69.40
12819;DHT22;6474;53.474;9.894;2023-07-13T09:14:54;21.30;69.40
12819;DHT22;6474;53.474;9.894;2023-07-13T09:17:26;21.30;69.30
12819;DHT22;6474;53.474;9.894;2023-07-13T09:20:02;21.50;69.30
12819;DHT22;6474;53.474;9.894;2023-07-13T09:22:34;21.50;69.20
12819;DHT22;6474;53.474;9.894;2023-07-13T09:25:13;21.60;69.30
12819;DHT22;6474;53.474;9.894;2023-07-13T09:27:47;21.60;69.20
12819;DHT22;6474;53.474;9.894;2023-07-13T09:30:24;21.60;69.10
12819;DHT22;6474;53.474;9.894;2023-07-13T09:32:56;21.70;69.20
12819;DHT22;6474;53.474;9.894;2023-07-13T09:35:27;21.80;68.80
12819;DHT22;6474;53.474;9.894;2023-07-13T09:38:06;21.80;68.50
12819;DHT22;6474;53.474;9.894;2023-07-13T09:40:53;21.70;68.40
12819;DHT22;6474;53.474;9.894;2023-07-13T09:43:27;21.80;68.50
12819;DHT22;6474;53.474;9.894;2023-07-13T09:45:55;22.00;68.70
12819;DHT22;6474;53.474;9.894;2023-07-13T09:48:23;22.10;68.50
12819;DHT22;6474;53.474;9.894;2023-07-13T09:50:57;22.20;68.40
12819;DHT22;6474;53.474;9.894;2023-07-13T09:53:33;22.30;68.20
12819;DHT22;6474;53.474;9.894;2023-07-13T09:56:00;22.30;68.30
12819;DHT22;6474;53.474;9.894;2023-07-13T09:58:30;22.20;68.30
12819;DHT22;6474;53.474;9.894;2023-07-13T10:01:01;22.20;68.50
12819;DHT22;6474;53.474;9.894;2023-07-13T10:03:36;22.00;68.50
12819;DHT22;6474;53.474;9.894;2023-07-13T10:06:12;22.00;68.70
12819;DHT22;6474;53.474;9.894;2023-07-13T10:08:41;22.10;68.80
12819;DHT22;6474;53.474;9.894;2023-07-13T10:11:14;22.10;68.50
12819;DHT22;6474;53.474;9.894;2023-07-13T10:13:51;21.90;68.50
12819;DHT22;6474;53.474;9.894;2023-07-13T10:16:25;21.90;68.60
12819;DHT22;6474;53.474;9.894;2023-07-13T10:18:56;21.80;68.60
12819;DHT22;6474;53.474;9.894;2023-07-13T10:21:31;22.00;68.70
12819;DHT22;6474;53.474;9.894;2023-07-13T10:24:09;22.10;68.80
12819;DHT22;6474;53.474;9.894;2023-07-13T10:26:46;22.10;68.70
12819;DHT22;6474;53.474;9.894;2023-07-13T10:29:16;22.20;68.60
12819;DHT22;6474;53.474;9.894;2023-07-13T10:31:45;22.30;68.30
12819;DHT22;6474;53.474;9.894;2023-07-13T10:34:13;22.40;68.00
12819;DHT22;6474;53.474;9.894;2023-07-13T10:36:43;22.50;67.80
12819;DHT22;6474;53.474;9.894;2023-07-13T10:39:17;22.70;67.80
12819;DHT22;6474;53.474;9.894;2023-07-13T10:41:49;22.70;67.60
12819;DHT22;6474;53.474;9.894;2023-07-13T10:44:24;22.60;67.50
12819;DHT22;6474;53.474;9.894;2023-07-13T10:46:58;22.50;67.60
12819;DHT22;6474;53.474;9.894;2023-07-13T10:49:29;22.40;67.80
12819;DHT22;6474;53.474;9.894;2023-07-13T10:51:59;22.40;67.90
12819;DHT22;6474;53.474;9.894;2023-07-13T10:54:28;22.60;68.40
12819;DHT22;6474;53.474;9.894;2023-07-13T10:57:15;22.80;67.70
12819;DHT22;6474;53.474;9.894;2023-07-13T10:59:48;23.00;67.30
12819;DHT22;6474;53.474;9.894;2023-07-13T11:02:25;23.20;67.10
12819;DHT22;6474;53.474;9.894;2023-07-13T11:04:56;23.40;66.70
12819;DHT22;6474;53.474;9.894;2023-07-13T11:07:26;23.50;66.60
12819;DHT22;6474;53.474;9.894;2023-07-13T11:09:56;23.60;66.40
12819;DHT22;6474;53.474;9.894;2023-07-13T11:12:49;23.80;66.10
12819;DHT22;6474;53.474;9.894;2023-07-13T11:15:32;23.90;65.80
12819;DHT22;6474;53.474;9.894;2023-07-13T11:18:03;24.00;65.90
12819;DHT22;6474;53.474;9.894;2023-07-13T11:20:37;24.10;65.70
12819;DHT22;6474;53.474;9.894;2023-07-13T11:23:29;24.00;65.90
12819;DHT22;6474;53.474;9.894;2023-07-13T11:25:58;23.80;66.10
12819;DHT22;6474;53.474;9.894;2023-07-13T11:28:30;23.60;66.40
12819;DHT22;6474;53.474;9.894;2023-07-13T11:31:14;23.60;66.90
12819;DHT22;6474;53.474;9.894;2023-07-13T11:33:53;23.70;67.00
12819;DHT22;6474;53.474;9.894;2023-07-13T11:36:22;23.90;66.90
12819;DHT22;6474;53.474;9.894;2023-07-13T11:38:59;24.10;66.50
12819;DHT22;6474;53.474;9.894;2023-07-13T11:41:30;24.20;66.10
12819;DHT22;6474;53.474;9.894;2023-07-13T11:44:07;24.40;65.70
12819;DHT22;6474;53.474;9.894;2023-07-13T11:46:45;24.20;65.50
12819;DHT22;6474;53.474;9.894;2023-07-13T11:49:16;24.00;65.90
12819;DHT22;6474;53.474;9.894;2023-07-13T11:51:44;23.80;66.20
12819;DHT22;6474;53.474;9.894;2023-07-13T11:54:21;23.80;66.60
12819;DHT22;6474;53.474;9.894;2023-07-13T11:56:50;23.70;66.60
12819;DHT22;6474;53.474;9.894;2023-07-13T11:59:18;23.60;66.60
12819;DHT22;6474;53.474;9.894;2023-07-13T12:01:52;23.40;66.70
12819;DHT22;6474;53.474;9.894;2023-07-13T12:04:23;23.30;67.00
12819;DHT22;6474;53.474;9.894;2023-07-13T12:06:56;23.20;67.20
12819;DHT22;6474;53.474;9.894;2023-07-13T12:09:27;23.10;67.10
12819;DHT22;6474;53.474;9.894;2023-07-13T12:11:57;23.00;67.00
12819;DHT22;6474;53.474;9.894;2023-07-13T12:14:27;22.70;66.80
12819;DHT22;6474;53.474;9.894;2023-07-13T12:16:57;22.40;66.70
12819;DHT22;6474;53.474;9.894;2023-07-13T12:19:27;22.10;66.90
12819;DHT22;6474;53.474;9.894;2023-07-13T12:21:57;21.70;67.30
12819;DHT22;6474;53.474;9.894;2023-07-13T12:24:26;21.40;68.00
12819;DHT22;6474;53.474;9.894;2023-07-13T12:27:01;21.20;68.60
12819;DHT22;6474;53.474;9.894;2023-07-13T12:29:31;21.10;68.90
12819;DHT22;6474;53.474;9.894;2023-07-13T12:32:02;21.10;69.10
12819;DHT22;6474;53.474;9.894;2023-07-13T12:34:51;21.10;69.20
12819;DHT22;6474;53.474;9.894;2023-07-13T12:37:19;21.10;69.30
12819;DHT22;6474;53.474;9.894;2023-07-13T12:39:51;21.20;69.40
12819;DHT22;6474;53.474;9.894;2023-07-13T12:42:23;21.20;69.30
12819;DHT22;6474;53.474;9.894;2023-07-13T12:44:56;21.10;69.00
12819;DHT22;6474;53.474;9.894;2023-07-13T12:47:28;21.10;68.90
12819;DHT22;6474;53.474;9.894;2023-07-13T12:49:58;21.10;69.00
12819;DHT22;6474;53.474;9.894;2023-07-13T12:52:30;21.00;68.80
12819;DHT22;6474;53.474;9.894;2023-07-13T12:55:05;20.90;68.70
12819;DHT22;6474;53.474;9.894;2023-07-13T12:57:40;20.80;68.50
12819;DHT22;6474;53.474;9.894;2023-07-13T13:00:22;20.80;68.30
12819;DHT22;6474;53.474;9.894;2023-07-13T13:02:53;20.70;68.30
12819;DHT22;6474;53.474;9.894;2023-07-13T13:05:42;20.50;68.20
12819;DHT22;6474;53.474;9.894;2023-07-13T13:08:12;20.40;68.40
12819;DHT22;6474;53.474;9.894;2023-07-13T13:10:40;20.40;68.70
12819;DHT22;6474;53.474;9.894;2023-07-13T13:13:08;20.50;68.90
12819;DHT22;6474;53.474;9.894;2023-07-13T13:15:37;20.60;69.00
12819;DHT22;6474;53.474;9.894;2023-07-13T13:18:15;20.70;69.10
12819;DHT22;6474;53.474;9.894;2023-07-13T13:20:43;20.80;69.00
12819;DHT22;6474;53.474;9.894;2023-07-13T13:23:14;20.90;68.80
12819;DHT22;6474;53.474;9.894;2023-07-13T13:25:45;21.10;68.80
12819;DHT22;6474;53.474;9.894;2023-07-13T13:28:16;21.20;68.70
12819;DHT22;6474;53.474;9.894;2023-07-13T13:30:45;21.40;68.70
12819;DHT22;6474;53.474;9.894;2023-07-13T13:33:16;21.40;68.40
12819;DHT22;6474;53.474;9.894;2023-07-13T13:35:45;21.50;68.30
12819;DHT22;6474;53.474;9.894;2023-07-13T13:38:15;21.50;68.10
12819;DHT22;6474;53.474;9.894;2023-07-13T13:40:44;21.50;68.20
12819;DHT22;6474;53.474;9.894;2023-07-13T13:43:16;21.50;68.10
12819;DHT22;6474;53.474;9.894;2023-07-13T13:45:45;21.40;68.10
12819;DHT22;6474;53.474;9.894;2023-07-13T13:48:17;21.50;69.10
12819;DHT22;6474;53.474;9.894;2023-07-13T13:50:46;21.50;68.40
12819;DHT22;6474;53.474;9.894;2023-07-13T13:53:14;21.60;68.50
12819;DHT22;6474;53.474;9.894;2023-07-13T13:55:42;21.60;68.30
12819;DHT22;6474;53.474;9.894;2023-07-13T13:58:10;21.60;68.20
12819;DHT22;6474;53.474;9.894;2023-07-13T14:00:39;21.50;68.20
12819;DHT22;6474;53.474;9.894;2023-07-13T14:03:15;21.50;68.30
12819;DHT22;6474;53.474;9.894;2023-07-13T14:05:45;21.40;68.40
12819;DHT22;6474;53.474;9.894;2023-07-13T14:08:15;21.40;68.40
12819;DHT22;6474;53.474;9.894;2023-07-13T14:10:45;21.50;68.60
12819;DHT22;6474;53.474;9.894;2023-07-13T14:13:16;21.60;68.20
12819;DHT22;6474;53.474;9.894;2023-07-13T14:15:46;21.80;68.50
12819;DHT22;6474;53.474;9.894;2023-07-13T14:18:16;21.90;68.10
12819;DHT22;6474;53.474;9.894;2023-07-13T14:20:45;21.90;67.90
12819;DHT22;6474;53.474;9.894;2023-07-13T14:23:14;21.90;67.80
12819;DHT22;6474;53.474;9.894;2023-07-13T14:25:42;22.00;67.90
12819;DHT22;6474;53.474;9.894;2023-07-13T14:28:19;22.00;67.80
12819;DHT22;6474;53.474;9.894;2023-07-13T14:30:48;22.00;67.80
12819;DHT22;6474;53.474;9.894;2023-07-13T14:33:18;22.00;67.80
12819;DHT22;6474;53.474;9.894;2023-07-13T14:35:47;22.00;67.90
12819;DHT22;6474;53.474;9.894;2023-07-13T14:38:19;22.00;68.00
12819;DHT22;6474;53.474;9.894;2023-07-13T14:40:47;22.20;68.10
12819;DHT22;6474;53.474;9.894;2023-07-13T14:43:16;22.30;67.80
12819;DHT22;6474;53.474;9.894;2023-07-13T14:45:46;22.40;67.50
12819;DHT22;6474;53.474;9.894;2023-07-13T14:48:21;22.50;67.40
12819;DHT22;6474;53.474;9.894;2023-07-13T14:50:53;22.50;67.30
12819;DHT22;6474;53.474;9.894;2023-07-13T14:53:22;22.50;67.10
12819;DHT22;6474;53.474;9.894;2023-07-13T14:55:50;22.60;67.30
12819;DHT22;6474;53.474;9.894;2023-07-13T14:58:19;22.50;67.20
12819;DHT22;6474;53.474;9.894;2023-07-13T15:00:47;22.40;67.20
12819;DHT22;6474;53.474;9.894;2023-07-13T15:03:21;22.30;67.20
12819;DHT22;6474;53.474;9.894;2023-07-13T15:05:51;22.20;67.20
12819;DHT22;6474;53.474;9.894;2023-07-13T15:08:19;22.20;67.50
12819;DHT22;6474;53.474;9.894;2023-07-13T15:10:47;22.20;67.60
12819;DHT22;6474;53.474;9.894;2023-07-13T15:13:17;22.20;67.40
12819;DHT22;6474;53.474;9.894;2023-07-13T15:15:48;22.20;67.50
12819;DHT22;6474;53.474;9.894;2023-07-13T15:18:20;22.20;67.70
12819;DHT22;6474;53.474;9.894;2023-07-13T15:20:49;22.30;67.80
12819;DHT22;6474;53.474;9.894;2023-07-13T15:23:19;22.50;67.50
12819;DHT22;6474;53.474;9.894;2023-07-13T15:25:46;22.60;67.20
12819;DHT22;6474;53.474;9.894;2023-07-13T15:28:16;22.80;67.20
12819;DHT22;6474;53.474;9.894;2023-07-13T15:30:45;22.90;66.80
12819;DHT22;6474;53.474;9.894;2023-07-13T15:33:19;22.80;66.60
12819;DHT22;6474;53.474;9.894;2023-07-13T15:35:48;22.60;66.50
12819;DHT22;6474;53.474;9.894;2023-07-13T15:38:20;22.50;66.70
12819;DHT22;6474;53.474;9.894;2023-07-13T15:40:49;22.40;67.00
12819;DHT22;6474;53.474;9.894;2023-07-13T15:43:18;22.30;67.20
12819;DHT22;6474;53.474;9.894;2023-07-13T15:45:47;22.20;67.20
12819;DHT22;6474;53.474;9.894;2023-07-13T15:48:16;22.10;67.40
12819;DHT22;6474;53.474;9.894;2023-07-13T15:50:47;22.10;67.50
12819;DHT22;6474;53.474;9.894;2023-07-13T15:53:23;22.10;67.70
12819;DHT22;6474;53.474;9.894;2023-07-13T15:55:52;22.10;67.60
12819;DHT22;6474;53.474;9.894;2023-07-13T15:58:20;22.10;67.50
12819;DHT22;6474;53.474;9.894;2023-07-13T16:00:48;22.20;67.60
12819;DHT22;6474;53.474;9.894;2023-07-13T16:03:19;22.20;67.40
12819;DHT22;6474;53.474;9.894;2023-07-13T16:05:49;22.10;67.40